Time;durP1;ratioP1;P1;durP2;ratioP2;P2;SDS_P1;SDS_P2;PMS_P1;PMS_P2;Temp;Humidity;BMP_temperature;BMP_pressure;BME280_temperature;BME280_humidity;BME280_pressure;Samples;Min_cycle;Max_cycle;Signal;HPM_P1;HPM_P2
2022/07/07 00:02:17;;;;;;;1999.90;999.90;;;19.50;99.90;;;;;;4992489;28;20165;-72
2022/07/07 00:04:43;;;;;;;1999.90;999.90;;;19.50;99.90;;;;;;4992483;28;20172;-73
2022/07/07 00:07:09;;;;;;;1999.90;999.90;;;19.50;99.90;;;;;;4992149;28;20236;-72
2022/07/07 00:09:35;;;;;;;1999.90;999.90;;;19.50;99.90;;;;;;4992443;28;20181;-72
2022/07/07 00:12:00;;;;;;;1999.90;999.90;;;19.50;99.90;;;;;;4992362;28;20201;-72
2022/07/07 00:14:26;;;;;;;1999.90;999.90;;;19.40;99.90;;;;;;4992466;28;20180;-72
2022/07/07 00:16:52;;;;;;;1999.90;999.90;;;19.40;99.90;;;;;;4991840;28;20314;-72
2022/07/07 00:19:18;;;;;;;1999.90;999.90;;;19.30;99.90;;;;;;4992449;28;20415;-72
2022/07/07 00:21:43;;;;;;;1999.90;999.90;;;19.30;99.90;;;;;;4992332;28;20895;-72
2022/07/07 00:24:09;;;;;;;1999.90;999.90;;;19.20;99.90;;;;;;4992337;28;20177;-72
2022/07/07 00:26:35;;;;;;;1999.90;999.90;;;19.20;99.90;;;;;;4991921;28;20200;-73
2022/07/07 00:29:01;;;;;;;1999.90;999.90;;;19.10;99.90;;;;;;4992253;28;20178;-72
2022/07/07 00:31:26;;;;;;;1999.90;999.90;;;19.10;99.90;;;;;;4992259;28;20180;-73
2022/07/07 00:33:52;;;;;;;1999.90;999.90;;;19.10;99.90;;;;;;4992220;28;20646;-73
2022/07/07 00:36:18;;;;;;;1999.90;999.90;;;19.10;99.90;;;;;;4994283;28;20200;-72
2022/07/07 00:38:43;;;;;;;1999.90;999.90;;;19.10;99.90;;;;;;4995932;28;20165;-73
2022/07/07 00:41:09;;;;;;;1999.90;999.90;;;19.00;99.90;;;;;;4995822;28;20190;-72
2022/07/07 00:43:36;;;;;;;1999.90;999.90;;;19.00;99.90;;;;;;4995921;28;20669;-72
2022/07/07 00:46:03;;;;;;;1999.90;999.90;;;19.00;99.90;;;;;;4995449;28;20657;-72
2022/07/07 00:48:31;;;;;;;1999.90;999.90;;;19.00;99.90;;;;;;4995741;28;20409;-72
2022/07/07 00:50:57;;;;;;;1999.90;999.90;;;19.10;99.90;;;;;;4995691;28;20409;-72
2022/07/07 00:53:23;;;;;;;1999.90;999.90;;;19.00;99.90;;;;;;4995667;28;20443;-73
2022/07/07 00:55:48;;;;;;;1999.90;999.90;;;19.10;99.90;;;;;;4995402;28;20182;-72
2022/07/07 00:58:14;;;;;;;1999.90;999.90;;;19.00;99.90;;;;;;4995305;28;20197;-73
2022/07/07 01:00:41;;;;;;;1999.90;999.90;;;19.00;99.90;;;;;;4994278;28;20197;-72
2022/07/07 01:03:08;;;;;;;1999.90;999.90;;;19.00;99.90;;;;;;4995529;28;20595;-72
2022/07/07 01:05:36;;;;;;;1999.90;999.90;;;19.10;99.90;;;;;;4995471;28;20909;-73
2022/07/07 01:08:03;;;;;;;1999.90;999.90;;;19.10;99.90;;;;;;4995005;28;20431;-72
2022/07/07 01:10:30;;;;;;;1999.90;999.90;;;19.00;99.90;;;;;;4995273;28;20915;-72
2022/07/07 01:12:55;;;;;;;1999.90;999.90;;;19.00;99.90;;;;;;4995485;28;20493;-72
2022/07/07 01:15:21;;;;;;;1999.90;999.90;;;19.00;99.90;;;;;;4995400;28;20443;-72
2022/07/07 01:17:47;;;;;;;1999.90;999.90;;;19.00;99.90;;;;;;4994901;28;20213;-72
2022/07/07 01:20:13;;;;;;;1999.90;999.90;;;18.90;99.90;;;;;;4995248;28;20169;-73
2022/07/07 01:22:52;;;;;;;1999.90;999.90;;;18.90;99.90;;;;;;4995158;28;20443;-72
2022/07/07 01:25:19;;;;;;;1999.90;999.90;;;18.80;99.90;;;;;;4995113;28;20411;-72
2022/07/07 01:27:44;;;;;;;1999.90;999.90;;;18.80;99.90;;;;;;4994686;28;20440;-72
2022/07/07 01:30:11;;;;;;;1999.90;999.90;;;18.80;99.90;;;;;;4994991;28;20410;-72
2022/07/07 01:32:36;;;;;;;1999.90;999.90;;;18.90;99.90;;;;;;4995019;28;20546;-72
2022/07/07 01:35:04;;;;;;;1999.90;999.90;;;18.90;99.90;;;;;;4994900;28;20412;-72
2022/07/07 01:37:32;;;;;;;1999.90;999.90;;;18.90;99.90;;;;;;4994417;28;20303;-73
2022/07/07 01:39:58;;;;;;;1999.90;999.90;;;18.80;99.90;;;;;;4994746;28;20831;-72
2022/07/07 01:42:23;;;;;;;1999.90;999.90;;;18.90;99.90;;;;;;4994771;28;20422;-73
2022/07/07 01:44:52;;;;;;;1999.90;999.90;;;18.90;99.90;;;;;;4994674;28;20189;-72
2022/07/07 01:47:20;;;;;;;1999.90;999.90;;;18.90;99.90;;;;;;4994045;28;20548;-72
2022/07/07 01:49:46;;;;;;;1999.90;999.90;;;18.90;99.90;;;;;;4994677;28;20426;-72
2022/07/07 01:52:11;;;;;;;1999.90;999.90;;;18.90;99.90;;;;;;4994598;28;20863;-72
2022/07/07 01:54:38;;;;;;;1999.90;999.90;;;19.00;99.90;;;;;;4994488;28;20441;-72
2022/07/07 01:57:05;;;;;;;1999.90;999.90;;;19.00;99.90;;;;;;4994064;28;20203;-72
2022/07/07 01:59:32;;;;;;;1999.90;999.90;;;19.00;99.90;;;;;;4994474;28;20825;-72
2022/07/07 02:01:57;;;;;;;1999.90;999.90;;;19.00;99.90;;;;;;4994376;28;20475;-72
2022/07/07 02:04:23;;;;;;;1999.90;999.90;;;19.00;99.90;;;;;;4994257;28;20416;-72
2022/07/07 02:06:48;;;;;;;1999.90;999.90;;;19.10;99.90;;;;;;4994021;28;20553;-72
2022/07/07 02:09:15;;;;;;;1999.90;999.90;;;19.10;99.90;;;;;;4994412;28;20184;-72
2022/07/07 02:11:41;;;;;;;1999.90;999.90;;;19.00;99.90;;;;;;4994203;28;20553;-72
2022/07/07 02:14:07;;;;;;;1999.90;999.90;;;19.00;99.90;;;;;;4994246;28;20412;-72
2022/07/07 02:16:33;;;;;;;1999.90;999.90;;;19.00;99.90;;;;;;4993647;28;20592;-72
2022/07/07 02:19:02;;;;;;;1999.90;999.90;;;19.00;99.90;;;;;;4994066;28;20404;-72
2022/07/07 02:21:28;;;;;;;1999.90;999.90;;;19.00;99.90;;;;;;4994051;28;20409;-72
2022/07/07 02:23:56;;;;;;;1999.90;999.90;;;19.00;99.90;;;;;;4994027;28;20777;-72
2022/07/07 02:26:22;;;;;;;1999.90;999.90;;;19.00;99.90;;;;;;4993678;28;20436;-72
2022/07/07 02:28:48;;;;;;;1999.90;999.90;;;19.00;99.90;;;;;;4993914;28;20910;-72
2022/07/07 02:31:14;;;;;;;1999.90;999.90;;;19.00;99.90;;;;;;4993887;28;20178;-72
2022/07/07 02:33:40;;;;;;;1999.90;999.90;;;19.10;99.90;;;;;;4993779;28;20411;-72
2022/07/07 02:36:07;;;;;;;1999.90;999.90;;;19.10;99.90;;;;;;4993427;28;20934;-72
2022/07/07 02:38:34;;;;;;;1999.90;999.90;;;19.00;99.90;;;;;;4993613;28;20455;-72
2022/07/07 02:41:00;;;;;;;1999.90;999.90;;;19.00;99.90;;;;;;4993660;28;20408;-72
2022/07/07 02:43:25;;;;;;;1999.90;999.90;;;19.00;99.90;;;;;;4993524;28;20981;-72
2022/07/07 02:45:51;;;;;;;1999.90;999.90;;;19.00;99.90;;;;;;4993353;28;20408;-72
2022/07/07 02:48:19;;;;;;;1999.90;999.90;;;19.00;99.90;;;;;;4993297;28;20180;-72
2022/07/07 02:50:46;;;;;;;1999.90;999.90;;;19.10;99.90;;;;;;4993519;28;20419;-72
2022/07/07 02:53:12;;;;;;;1999.90;999.90;;;19.00;99.90;;;;;;4993345;28;20420;-72
2022/07/07 02:55:39;;;;;;;1999.90;999.90;;;19.00;99.90;;;;;;4993367;28;20450;-72
2022/07/07 02:58:06;;;;;;;1999.90;999.90;;;19.10;99.90;;;;;;4992167;28;20466;-72
2022/07/07 03:00:35;;;;;;;1999.90;999.90;;;19.10;99.90;;;;;;4992033;28;20402;-72
2022/07/07 03:03:02;;;;;;;1999.90;999.90;;;19.00;99.90;;;;;;4993282;28;20851;-72
2022/07/07 03:05:28;;;;;;;1999.90;999.90;;;19.00;99.90;;;;;;4993259;28;20404;-72
2022/07/07 03:07:54;;;;;;;1999.90;999.90;;;18.90;99.90;;;;;;4992755;28;20428;-72
2022/07/07 03:10:20;;;;;;;1999.90;999.90;;;18.90;99.90;;;;;;4993179;28;20182;-72
2022/07/07 03:12:46;;;;;;;1999.90;999.90;;;18.90;99.90;;;;;;4993080;28;20392;-72
2022/07/07 03:15:13;;;;;;;1999.90;999.90;;;18.80;99.90;;;;;;4993053;28;20500;-72
2022/07/07 03:17:43;;;;;;;1999.90;999.90;;;18.90;99.90;;;;;;4992561;28;20882;-72
2022/07/07 03:20:10;;;;;;;1999.90;999.90;;;18.80;99.90;;;;;;4992995;28;20441;-72
2022/07/07 03:22:37;;;;;;;1999.90;999.90;;;18.80;99.90;;;;;;4992914;28;20411;-72
2022/07/07 03:25:03;;;;;;;1999.90;999.90;;;18.80;99.90;;;;;;4992892;28;20417;-72
2022/07/07 03:27:29;;;;;;;1999.90;999.90;;;18.80;99.90;;;;;;4992515;28;20435;-72
2022/07/07 03:29:54;;;;;;;1999.90;999.90;;;18.80;99.90;;;;;;4992825;28;20412;-72
2022/07/07 03:32:20;;;;;;;1999.90;999.90;;;18.70;99.90;;;;;;4992813;28;20184;-72
2022/07/07 03:34:46;;;;;;;1999.90;999.90;;;18.80;99.90;;;;;;4992870;28;20201;-72
2022/07/07 03:37:11;;;;;;;1999.90;999.90;;;18.80;99.90;;;;;;4992334;28;20210;-72
2022/07/07 03:39:37;;;;;;;1999.90;999.90;;;18.80;99.90;;;;;;4992801;28;20172;-72
2022/07/07 03:42:02;;;;;;;1999.90;999.90;;;18.70;99.90;;;;;;4992711;28;20194;-72
2022/07/07 03:44:28;;;;;;;1999.90;999.90;;;18.70;99.90;;;;;;4992670;28;20173;-72
2022/07/07 03:46:54;;;;;;;1999.90;999.90;;;18.70;99.90;;;;;;5035006;23;20195;-75
2022/07/07 03:49:20;;;;;;;1999.90;999.90;;;18.70;99.90;;;;;;5012195;28;20204;-75
2022/07/07 03:51:45;;;;;;;1999.90;999.90;;;18.70;99.90;;;;;;5012197;28;20403;-75
2022/07/07 03:54:12;;;;;;;1999.90;999.90;;;18.60;99.90;;;;;;5012206;28;20165;-75
2022/07/07 03:56:39;;;;;;;1999.90;999.90;;;18.70;99.90;;;;;;5011846;28;20171;-75
2022/07/07 03:59:04;;;;;;;1999.90;999.90;;;18.60;99.90;;;;;;5012006;28;20438;-75
2022/07/07 04:01:30;;;;;;;1999.90;999.90;;;18.60;99.90;;;;;;5012180;28;20459;-75
2022/07/07 04:03:56;;;;;;;1999.90;999.90;;;18.50;99.90;;;;;;5012120;28;20167;-75
2022/07/07 04:06:21;;;;;;;1999.90;999.90;;;18.50;99.90;;;;;;5011733;28;20175;-75
2022/07/07 04:08:47;;;;;;;1999.90;999.90;;;18.50;99.90;;;;;;5012091;28;20194;-75
2022/07/07 04:11:12;;;;;;;1999.90;999.90;;;18.50;99.90;;;;;;5016056;28;20215;-75
2022/07/07 04:13:38;;;;;;;1999.90;999.90;;;18.50;99.90;;;;;;5016020;28;20248;-75
2022/07/07 04:16:04;;;;;;;1999.90;999.90;;;18.50;99.90;;;;;;5015640;28;20660;-74
2022/07/07 04:18:30;;;;;;;1999.90;999.90;;;18.60;99.90;;;;;;5015767;28;20201;-75
2022/07/07 04:20:55;;;;;;;1999.90;999.90;;;18.50;99.90;;;;;;5015872;28;20415;-75
2022/07/07 04:23:21;;;;;;;1999.90;999.90;;;18.40;99.90;;;;;;5015972;28;20176;-75
2022/07/07 04:25:46;;;;;;;1999.90;999.90;;;18.40;99.90;;;;;;5015771;28;20179;-74
2022/07/07 04:28:12;;;;;;;1999.90;999.90;;;18.40;99.90;;;;;;5015327;28;20193;-75
2022/07/07 04:30:38;;;;;;;1999.90;999.90;;;18.40;99.90;;;;;;5015705;28;20161;-75
2022/07/07 04:33:03;;;;;;;1999.90;999.90;;;18.30;99.90;;;;;;5015696;28;20538;-75
2022/07/07 04:35:29;;;;;;;1999.90;999.90;;;18.40;99.90;;;;;;5015608;28;20287;-75
2022/07/07 04:37:54;;;;;;;1999.90;999.90;;;18.40;99.90;;;;;;5015304;28;20635;-75
2022/07/07 04:40:20;;;;;;;1999.90;999.90;;;18.40;99.90;;;;;;5015517;28;20201;-75
2022/07/07 04:42:45;;;;;;;1999.90;999.90;;;18.40;99.90;;;;;;5015466;28;20193;-75
2022/07/07 04:45:11;;;;;;;1999.90;999.90;;;18.40;99.90;;;;;;5015455;28;20198;-75
2022/07/07 04:47:41;;;;;;;1999.90;999.90;;;18.40;99.90;;;;;;5014939;28;20207;-75
2022/07/07 04:50:10;;;;;;;1999.90;999.90;;;18.40;99.90;;;;;;5015296;28;20218;-75
2022/07/07 04:52:36;;;;;;;1999.90;999.90;;;18.30;99.90;;;;;;5015343;28;20934;-75
2022/07/07 04:55:02;;;;;;;1999.90;999.90;;;18.30;99.90;;;;;;5015260;28;20831;-75
2022/07/07 04:57:28;;;;;;;1999.90;999.90;;;18.30;99.90;;;;;;5014687;28;20471;-75
2022/07/07 04:59:54;;;;;;;1999.90;999.90;;;18.40;99.90;;;;;;5015172;28;20494;-75
2022/07/07 05:02:19;;;;;;;1999.90;999.90;;;18.30;99.90;;;;;;5015131;28;20192;-75
2022/07/07 05:04:45;;;;;;;1999.90;999.90;;;18.30;99.90;;;;;;5015040;28;20173;-75
2022/07/07 05:07:10;;;;;;;1999.90;999.90;;;18.30;99.90;;;;;;5014629;28;20257;-75
2022/07/07 05:09:36;;;;;;;1999.90;999.90;;;18.30;99.90;;;;;;5014897;28;20568;-75
2022/07/07 05:12:03;;;;;;;1999.90;999.90;;;18.30;99.90;;;;;;5014925;28;20253;-75
2022/07/07 05:14:29;;;;;;;1999.90;999.90;;;18.30;99.90;;;;;;5015056;28;20617;-75
2022/07/07 05:16:55;;;;;;;1999.90;999.90;;;18.30;99.90;;;;;;5014434;28;20482;-75
2022/07/07 05:19:22;;;;;;;1999.90;999.90;;;18.40;99.90;;;;;;5014756;28;20541;-75
2022/07/07 05:21:48;;;;;;;1999.90;999.90;;;18.40;99.90;;;;;;5013873;28;20412;-75
2022/07/07 05:24:13;;;;;;;1999.90;999.90;;;18.40;99.90;;;;;;5014682;28;20910;-75
2022/07/07 05:26:39;;;;;;;1999.90;999.90;;;18.50;99.90;;;;;;5014337;28;20400;-75
2022/07/07 05:29:04;;;;;;;1999.90;999.90;;;18.50;99.90;;;;;;5014570;28;20607;-75
2022/07/07 05:31:30;;;;;;;1999.90;999.90;;;18.50;99.90;;;;;;5013340;28;20180;-75
2022/07/07 05:33:56;;;;;;;1999.90;999.90;;;18.50;99.90;;;;;;5014520;28;20196;-75
2022/07/07 05:36:21;;;;;;;1999.90;999.90;;;18.60;99.90;;;;;;5014142;28;20722;-75
2022/07/07 05:38:47;;;;;;;1999.90;999.90;;;18.60;99.90;;;;;;5014346;28;20205;-75
2022/07/07 05:41:12;;;;;;;1999.90;999.90;;;18.60;99.90;;;;;;5014481;28;20178;-75
2022/07/07 05:43:38;;;;;;;1999.90;999.90;;;18.60;99.90;;;;;;5014407;28;20174;-75
2022/07/07 05:46:04;;;;;;;1999.90;999.90;;;18.50;99.90;;;;;;5014029;28;20166;-75
2022/07/07 05:48:29;;;;;;;1999.90;999.90;;;18.40;99.90;;;;;;5014074;28;20598;-76
2022/07/07 05:50:55;;;;;;;1999.90;999.90;;;18.20;99.90;;;;;;5014225;28;20708;-76
2022/07/07 05:53:21;;;;;;;1999.90;999.90;;;18.10;99.90;;;;;;5014256;28;20679;-76
2022/07/07 05:55:47;;;;;;;1999.90;999.90;;;18.00;99.90;;;;;;5014139;28;20495;-75
2022/07/07 05:58:12;;;;;;;1999.90;999.90;;;17.90;99.90;;;;;;5013670;28;20695;-75
2022/07/07 06:00:38;;;;;;;1999.90;999.90;;;17.70;99.90;;;;;;5014044;28;20173;-75
2022/07/07 06:03:04;;;;;;;1999.90;999.90;;;17.60;99.90;;;;;;5014045;28;20167;-74
2022/07/07 06:05:29;;;;;;;1999.90;999.90;;;17.60;99.90;;;;;;5013910;28;20192;-74
2022/07/07 06:07:55;;;;;;;1999.90;999.90;;;17.50;99.90;;;;;;5013565;28;20200;-74
2022/07/07 06:10:21;;;;;;;1999.90;999.90;;;17.30;99.90;;;;;;5013800;28;20182;-74
2022/07/07 06:12:48;;;;;;;1999.90;999.90;;;17.20;99.90;;;;;;5013828;28;20167;-76
2022/07/07 06:15:14;;;;;;;1999.90;999.90;;;17.00;99.90;;;;;;5013816;28;20176;-75
2022/07/07 06:17:40;;;;;;;1999.90;999.90;;;16.80;99.90;;;;;;5013284;28;20451;-75
2022/07/07 06:20:07;;;;;;;1999.90;999.90;;;16.70;99.90;;;;;;5013655;28;20167;-75
2022/07/07 06:22:32;;;;;;;1999.90;999.90;;;16.70;99.90;;;;;;5013569;28;20926;-76
2022/07/07 06:24:58;;;;;;;1999.90;999.90;;;16.60;99.90;;;;;;5013577;28;20484;-77
2022/07/07 06:27:25;;;;;;;1999.90;999.90;;;16.70;99.90;;;;;;5013124;28;20578;-76
2022/07/07 06:29:51;;;;;;;1999.90;999.90;;;16.70;99.90;;;;;;5013536;28;20546;-75
2022/07/07 06:32:17;;;;;;;1999.90;999.90;;;16.80;99.90;;;;;;5013412;28;20412;-75
2022/07/07 06:34:43;;;;;;;1999.90;999.90;;;16.90;99.90;;;;;;5013341;28;20411;-75
2022/07/07 06:37:09;;;;;;;1999.90;999.90;;;17.00;99.90;;;;;;5012979;28;20205;-75
2022/07/07 06:39:35;;;;;;;1999.90;999.90;;;17.10;99.90;;;;;;5013344;28;20497;-75
2022/07/07 06:42:01;;;;;;;1999.90;999.90;;;17.20;99.90;;;;;;5013153;28;20415;-75
2022/07/07 06:44:32;;;;;;;1999.90;999.90;;;17.40;99.90;;;;;;5013138;28;20674;-75
2022/07/07 06:46:59;;;;;;;1999.90;999.90;;;17.50;99.90;;;;;;5012811;28;20402;-75
2022/07/07 06:49:25;;;;;;;1999.90;999.90;;;17.60;99.90;;;;;;5013431;28;20920;-75
2022/07/07 06:51:50;;;;;;;1999.90;999.90;;;17.60;99.90;;;;;;5013048;28;20419;-75
2022/07/07 06:54:16;;;;;;;1999.90;999.90;;;17.50;99.90;;;;;;5013068;28;20410;-75
2022/07/07 06:56:42;;;;;;;1999.90;999.90;;;17.40;99.90;;;;;;5012634;28;20194;-77
2022/07/07 06:59:07;;;;;;;1999.90;999.90;;;17.30;99.90;;;;;;5013040;28;20201;-76
2022/07/07 07:01:33;;;;;;;1999.90;999.90;;;17.10;99.90;;;;;;5012923;28;20617;-76
2022/07/07 07:03:59;;;;;;;1999.90;999.90;;;17.00;99.90;;;;;;5012883;28;20208;-76
2022/07/07 07:06:25;;;;;;;1999.90;999.90;;;16.90;99.90;;;;;;5012436;28;20189;-76
2022/07/07 07:08:51;;;;;;;1999.90;999.90;;;17.00;99.90;;;;;;5012801;28;20295;-76
2022/07/07 07:11:17;;;;;;;1999.90;999.90;;;17.00;99.90;;;;;;5012754;28;20499;-74
2022/07/07 07:13:42;;;;;;;1999.90;999.90;;;17.10;99.90;;;;;;5012722;28;20259;-75
2022/07/07 07:16:08;;;;;;;1999.90;999.90;;;17.30;99.90;;;;;;5012375;28;20171;-75
2022/07/07 07:18:34;;;;;;;1999.90;999.90;;;17.50;99.90;;;;;;5012466;28;20206;-75
2022/07/07 07:20:59;;;;;;;1999.90;999.90;;;17.60;99.90;;;;;;5012581;28;20233;-75
2022/07/07 07:23:25;;;;;;;1999.90;999.90;;;17.70;99.90;;;;;;5012644;28;20240;-75
2022/07/07 07:25:50;;;;;;;1999.90;999.90;;;17.80;99.90;;;;;;5012434;28;20202;-74
2022/07/07 07:28:16;;;;;;;1999.90;999.90;;;17.80;99.90;;;;;;5012248;28;20223;-75
2022/07/07 07:30:42;;;;;;;1999.90;999.90;;;17.80;99.90;;;;;;5012540;28;20536;-74
2022/07/07 07:33:08;;;;;;;1999.90;999.90;;;17.70;99.90;;;;;;5012486;28;20792;-75
2022/07/07 07:35:33;;;;;;;1999.90;999.90;;;17.70;99.90;;;;;;5012391;28;20443;-73
2022/07/07 07:37:59;;;;;;;1999.90;999.90;;;17.80;99.90;;;;;;5011966;28;20221;-75
2022/07/07 07:40:25;;;;;;;1999.90;999.90;;;17.80;99.90;;;;;;5012344;28;20228;-75
2022/07/07 07:42:50;;;;;;;1999.90;999.90;;;17.90;99.90;;;;;;5012546;28;20212;-75
2022/07/07 07:45:16;;;;;;;1999.90;999.90;;;18.10;99.90;;;;;;5012322;28;20182;-75
2022/07/07 07:47:44;;;;;;;1999.90;999.90;;;18.00;99.90;;;;;;5012051;28;20805;-75
2022/07/07 07:50:12;;;;;;;1999.90;999.90;;;18.00;99.90;;;;;;5012440;28;20443;-75
2022/07/07 07:52:39;;;;;;;1999.90;999.90;;;18.10;99.90;;;;;;5012381;28;20412;-75
2022/07/07 07:55:10;;;;;;;1999.90;999.90;;;18.10;99.90;;;;;;5012239;28;20497;-75
2022/07/07 07:57:36;;;;;;;1999.90;999.90;;;18.10;99.90;;;;;;5011834;28;20489;-75
2022/07/07 08:00:05;;;;;;;1999.90;999.90;;;18.20;99.90;;;;;;5012157;28;20404;-75
2022/07/07 08:02:31;;;;;;;1999.90;999.90;;;18.10;99.90;;;;;;5011976;28;20402;-75
2022/07/07 08:04:56;;;;;;;1999.90;999.90;;;18.00;99.90;;;;;;5012097;28;20408;-74
2022/07/07 08:07:22;;;;;;;1999.90;999.90;;;18.00;99.90;;;;;;5011963;28;20191;-76
2022/07/07 08:09:48;;;;;;;1999.90;999.90;;;18.00;99.90;;;;;;5012013;28;20177;-75
2022/07/07 08:12:14;;;;;;;1999.90;999.90;;;18.00;99.90;;;;;;5012111;28;20192;-75
2022/07/07 08:14:39;;;;;;;1999.90;999.90;;;18.20;99.90;;;;;;5012028;28;20947;-74
2022/07/07 08:17:05;;;;;;;1999.90;999.90;;;18.30;99.90;;;;;;5011576;28;20654;-75
2022/07/07 08:19:31;;;;;;;1999.90;999.90;;;18.60;99.90;;;;;;5011855;28;20165;-75
2022/07/07 08:21:57;;;;;;;1999.90;999.90;;;19.00;99.90;;;;;;5011968;28;20443;-75
2022/07/07 08:24:22;;;;;;;1999.90;999.90;;;19.30;99.90;;;;;;5006016;28;20176;-74
2022/07/07 08:26:48;;;;;;;1999.90;999.90;;;19.30;99.90;;;;;;5010379;28;20196;-74
2022/07/07 08:29:14;;;;;;;1999.90;999.90;;;19.20;99.90;;;;;;5011098;28;20223;-74
2022/07/07 08:31:40;;;;;;;1999.90;999.90;;;19.10;99.90;;;;;;5010486;28;20256;-73
2022/07/07 08:34:09;;;;;;;1999.90;999.90;;;18.90;99.90;;;;;;5010879;28;20176;-73
2022/07/07 08:36:34;;;;;;;1999.90;999.90;;;19.10;99.90;;;;;;5009180;28;20420;-73
2022/07/07 08:39:00;;;;;;;1999.90;999.90;;;19.20;99.90;;;;;;5010533;28;20938;-73
2022/07/07 08:41:26;;;;;;;1999.90;999.90;;;19.00;99.90;;;;;;5010941;28;20404;-72
2022/07/07 08:43:52;;;;;;;1999.90;999.90;;;18.80;99.90;;;;;;5011119;28;20182;-73
2022/07/07 08:46:18;;;;;;;1999.90;999.90;;;18.70;99.90;;;;;;5010069;28;20412;-73
2022/07/07 08:49:09;;;;;;;1999.90;999.90;;;18.70;99.90;;;;;;5010764;28;20303;-77
2022/07/07 08:51:41;;;;;;;1999.90;999.90;;;18.60;99.90;;;;;;5019660;28;20200;-67
2022/07/07 08:54:09;;;;;;;1999.90;999.90;;;18.10;99.90;;;;;;5021271;28;20409;-70
2022/07/07 08:56:38;;;;;;;1999.90;999.90;;;17.40;99.90;;;;;;5014177;28;20422;-70
2022/07/07 08:59:06;;;;;;;1999.90;999.90;;;17.00;99.90;;;;;;5015448;28;20443;-73
2022/07/07 09:01:32;;;;;;;1999.90;999.90;;;16.80;99.90;;;;;;5017779;28;20429;-73
2022/07/07 09:03:58;;;;;;;1999.90;999.90;;;16.70;99.90;;;;;;5013415;28;20433;-75
2022/07/07 09:06:24;;;;;;;1999.90;999.90;;;16.80;99.90;;;;;;5013866;28;20439;-74
2022/07/07 09:08:50;;;;;;;1999.90;999.90;;;16.90;99.90;;;;;;5013508;28;20480;-75
2022/07/07 09:11:23;;;;;;;1999.90;999.90;;;17.10;99.90;;;;;;5014263;28;20189;-70
2022/07/07 09:14:33;;;;;;;1999.90;999.90;;;17.20;99.90;;;;;;5024722;28;20460;-68
2022/07/07 09:17:27;;;;;;;1999.90;999.90;;;17.20;99.90;;;;;;4996083;28;20470;-71
2022/07/07 09:20:10;;;;;;;1999.90;999.90;;;17.40;99.90;;;;;;4996734;28;20862;-73
2022/07/07 09:22:50;;;;;;;1999.90;999.90;;;17.50;99.90;;;;;;5015367;28;20419;-70
2022/07/07 09:25:19;;;;;;;1999.90;999.90;;;17.70;99.90;;;;;;5014001;28;20406;-69
2022/07/07 09:27:55;;;;;;;1999.90;999.90;;;18.00;99.90;;;;;;5013412;28;20437;-70
2022/07/07 09:30:31;;;;;;;1999.90;999.90;;;18.40;99.90;;;;;;5014191;28;20455;-70
2022/07/07 09:32:58;;;;;;;1999.90;999.90;;;18.80;99.90;;;;;;5014262;28;20411;-70
2022/07/07 09:38:13;;;;;;;1999.90;999.90;;;18.70;99.90;;;;;;5013315;28;20458;-69
2022/07/07 09:41:08;;;;;;;1999.90;999.90;;;18.70;99.90;;;;;;5014087;28;20803;-69
2022/07/07 09:43:53;;;;;;;1999.90;999.90;;;18.80;99.90;;;;;;5009065;28;20478;-69
2022/07/07 09:46:25;;;;;;;1999.90;999.90;;;18.90;99.90;;;;;;5013151;28;20409;-69
2022/07/07 09:48:51;;;;;;;1999.90;999.90;;;19.10;99.90;;;;;;5013949;28;20854;-70
2022/07/07 09:51:20;;;;;;;1999.90;999.90;;;19.30;99.90;;;;;;5013893;28;20407;-70
2022/07/07 09:54:07;;;;;;;1999.90;999.90;;;19.50;99.90;;;;;;5013421;28;20851;-70
2022/07/07 09:56:44;;;;;;;1999.90;999.90;;;19.80;99.90;;;;;;5013138;28;20400;-70
2022/07/07 09:59:15;;;;;;;1999.90;999.90;;;19.70;99.90;;;;;;5013426;28;20423;-70
2022/07/07 10:01:44;;;;;;;1999.90;999.90;;;19.70;99.90;;;;;;5012852;28;20417;-70
2022/07/07 10:04:17;;;;;;;1999.90;999.90;;;19.80;99.90;;;;;;5013481;28;20490;-70
2022/07/07 10:06:44;;;;;;;1999.90;999.90;;;19.80;99.90;;;;;;5013013;28;20930;-69
2022/07/07 10:09:20;;;;;;;1999.90;999.90;;;19.90;99.90;;;;;;5012737;28;20470;-71
2022/07/07 10:11:51;;;;;;;1999.90;999.90;;;19.90;99.90;;;;;;5013035;28;20419;-69
2022/07/07 10:14:27;;;;;;;1999.90;999.90;;;19.80;99.90;;;;;;5013143;28;20426;-68
2022/07/07 10:16:54;;;;;;;1999.90;999.90;;;19.80;99.90;;;;;;5012116;28;20397;-70
2022/07/07 10:19:22;;;;;;;1999.90;999.90;;;19.80;99.90;;;;;;5013852;28;20894;-71
2022/07/07 10:21:50;;;;;;;1999.90;999.90;;;19.90;99.90;;;;;;5016345;28;20431;-69
2022/07/07 10:24:17;;;;;;;1999.90;999.90;;;20.10;99.90;;;;;;5012164;28;20406;-70
2022/07/07 10:26:51;;;;;;;1999.90;999.90;;;20.20;99.90;;;;;;5010460;28;20425;-69
2022/07/07 10:29:35;;;;;;;1999.90;999.90;;;20.10;99.90;;;;;;5012846;28;20471;-75
2022/07/07 10:32:01;;;;;;;1999.90;999.90;;;20.10;99.90;;;;;;5011072;28;20440;-72
2022/07/07 10:34:33;;;;;;;1999.90;999.90;;;20.00;99.90;;;;;;5013878;28;20443;-72
2022/07/07 10:36:59;;;;;;;1999.90;999.90;;;19.70;99.90;;;;;;5012165;28;20196;-72
2022/07/07 10:39:28;;;;;;;1999.90;999.90;;;19.30;99.90;;;;;;5012812;28;20415;-71
2022/07/07 10:42:12;;;;;;;1999.90;999.90;;;19.00;99.90;;;;;;5013270;28;20378;-72
2022/07/07 10:44:39;;;;;;;1999.90;999.90;;;18.70;99.90;;;;;;5012708;28;20403;-73
2022/07/07 10:47:25;;;;;;;1999.90;999.90;;;18.60;99.90;;;;;;5012989;28;20458;-72
2022/07/07 10:49:52;;;;;;;1999.90;999.90;;;18.60;99.90;;;;;;5013462;28;20506;-73
2022/07/07 10:52:23;;;;;;;1999.90;999.90;;;18.70;99.90;;;;;;5012836;28;20396;-72
2022/07/07 10:54:50;;;;;;;1999.90;999.90;;;19.30;99.90;;;;;;5013098;28;20485;-72
2022/07/07 10:57:23;;;;;;;1999.90;999.90;;;19.90;99.90;;;;;;5012520;28;20476;-71
2022/07/07 10:59:59;;;;;;;1999.90;999.90;;;19.90;99.90;;;;;;5012345;28;20412;-73
2022/07/07 11:02:34;;;;;;;1999.90;999.90;;;19.90;99.90;;;;;;5012300;28;20947;-73
2022/07/07 11:05:03;;;;;;;1999.90;999.90;;;19.90;99.90;;;;;;5012240;28;20432;-73
2022/07/07 11:07:29;;;;;;;1999.90;999.90;;;19.90;99.90;;;;;;5011636;28;20428;-73
2022/07/07 11:09:59;;;;;;;1999.90;999.90;;;19.80;99.90;;;;;;5012498;28;20411;-73
2022/07/07 11:12:36;;;;;;;1999.90;999.90;;;19.60;99.90;;;;;;5012227;28;20420;-73
2022/07/07 11:15:30;;;;;;;1999.90;999.90;;;19.40;99.90;;;;;;5012204;28;20888;-72
2022/07/07 11:17:56;;;;;;;1999.90;999.90;;;19.20;99.90;;;;;;5011828;28;20873;-71
2022/07/07 11:20:27;;;;;;;1999.90;999.90;;;19.10;99.90;;;;;;5011556;28;20386;-72
2022/07/07 11:22:55;;;;;;;1999.90;999.90;;;19.20;99.90;;;;;;5011382;28;20209;-72
2022/07/07 11:25:22;;;;;;;1999.90;999.90;;;19.30;99.90;;;;;;5012229;28;20408;-72
2022/07/07 11:27:49;;;;;;;1999.90;999.90;;;19.50;99.90;;;;;;5012196;28;20427;-73
2022/07/07 11:30:16;;;;;;;1999.90;999.90;;;19.70;99.90;;;;;;5011932;28;20963;-72
2022/07/07 11:32:43;;;;;;;1999.90;999.90;;;19.80;99.90;;;;;;5012268;28;20374;-73
2022/07/07 11:35:13;;;;;;;1999.90;999.90;;;20.00;99.90;;;;;;5012130;28;20471;-72
2022/07/07 11:37:41;;;;;;;1999.90;999.90;;;20.20;99.90;;;;;;5011284;28;20495;-70
2022/07/07 11:40:14;;;;;;;1999.90;999.90;;;20.20;99.90;;;;;;5012448;28;20411;-73
2022/07/07 11:42:41;;;;;;;1999.90;999.90;;;20.30;99.90;;;;;;5012118;28;20375;-73
2022/07/07 11:45:30;;;;;;;1999.90;999.90;;;20.40;99.90;;;;;;5011900;28;20408;-73
2022/07/07 11:48:03;;;;;;;1999.90;999.90;;;20.50;99.90;;;;;;5011631;28;20453;-73
2022/07/07 11:50:31;;;;;;;1999.90;999.90;;;20.50;99.90;;;;;;5012340;28;21011;-72
2022/07/07 11:52:59;;;;;;;1999.90;999.90;;;20.20;99.90;;;;;;5011987;28;20384;-72
2022/07/07 11:55:26;;;;;;;1999.90;999.90;;;20.10;99.90;;;;;;5012732;28;20440;-71
2022/07/07 11:57:54;;;;;;;1999.90;999.90;;;19.90;99.90;;;;;;5010284;28;20490;-73
2022/07/07 12:00:26;;;;;;;1999.90;999.90;;;20.00;99.90;;;;;;5011166;28;20936;-73
2022/07/07 12:02:54;;;;;;;1999.90;999.90;;;20.10;99.90;;;;;;5011542;28;20917;-72
2022/07/07 12:05:26;;;;;;;1999.90;999.90;;;20.20;99.90;;;;;;5011826;28;20432;-72